CNP8 weather

Greenbank Airport
Greenbank, Ontario, Canada

Public forecast

Using degrees Celsius for public forecast. Weather courtesy of forecast.io.

Closest aviation weather report (METAR) to Greenbank Airport

Closest report is Toronto/Oshawa Executive Airport, 13.6 nm (25.3 km) SSE. Retrieved 2019/11/13 11:00 UTC (2 minutes ago):

CYOO 131100Z AUTO 35007KT 9SM CLR M15/M18 A3033 RMK SLP284

Closest aviation forecast (TAF) to Greenbank Airport

Closest forecast is Toronto/Oshawa Executive Airport, 13.6 nm (25.3 km) SSE. Retrieved 2019/11/13 08:00 UTC (3 hours ago):

TAF CYOO 130751Z 1308/1320 34007KT P6SM FEW030 BECMG 1312/1314 VRB03KT RMK FCST BASED ON AUTO OBS NXT FCST BY 131400Z